CBD8 weather

Black Diamond/Flying R Ranch Airport
Alberta, Canada

Public forecast

Using degrees Celsius for public forecast. Weather courtesy of forecast.io.

METAR (pilot weather report)

Closest report is Calgary / Springbank Airport, 28.3 nm (52.3 km) NNW. Retrieved 2019/09/21 18:00 UTC (46 minutes ago):

CYBW 211800Z AUTO 22005KT 130V270 9SM CLR 14/05 A2993 RMK SLP155 DENSITY ALT 4700FT

TAF (pilot weather forecast)

Closest forecast is Calgary / Springbank Airport, 28.3 nm (52.3 km) NNW. Retrieved 2019/09/21 18:00 UTC (46 minutes ago):

TAF CYBW 211738Z 2118/2204 VRB03KT P6SM SCT050 BKN120 TEMPO 2118/2122 BKN050 OVC100 FM212200 22008KT P6SM FEW050 SCT120 RMK FCST BASED ON AUTO OBS. NXT FCST BY 220000Z